createdAt,value
2022-12-14T00:03:51.681Z,69.28
2022-12-14T00:08:56.475Z,69.20
2022-12-14T00:14:00.732Z,68.64
2022-12-14T00:19:05.681Z,68.52
2022-12-14T00:24:10.310Z,69.51
2022-12-14T00:29:13.182Z,69.34
2022-12-14T00:34:17.599Z,69.69
2022-12-14T00:39:20.928Z,69.68
2022-12-14T00:44:23.777Z,69.15
2022-12-14T00:49:28.030Z,70.11
2022-12-14T00:54:30.728Z,69.85
2022-12-14T00:59:33.462Z,69.24
2022-12-14T01:04:37.674Z,69.23
2022-12-14T01:09:40.353Z,69.57
2022-12-14T01:14:43.055Z,69.53
2022-12-14T01:19:48.993Z,69.50
2022-12-14T01:24:52.324Z,69.07
2022-12-14T01:29:55.026Z,69.06
2022-12-14T01:34:59.042Z,70.14
2022-12-14T01:40:01.795Z,69.34
2022-12-14T01:45:05.991Z,70.33
2022-12-14T01:50:18.963Z,70.12
2022-12-14T01:55:23.938Z,70.09
2022-12-14T02:00:26.785Z,70.21
2022-12-14T02:05:31.488Z,69.72
2022-12-14T02:10:34.602Z,69.35
2022-12-14T02:15:39.177Z,69.42
2022-12-14T02:20:53.953Z,69.87
2022-12-14T02:26:28.370Z,70.50
2022-12-14T02:31:36.077Z,70.12
2022-12-14T02:36:43.950Z,69.92
2022-12-14T02:41:52.354Z,70.59
2022-12-14T02:46:59.349Z,69.88
2022-12-14T02:52:07.588Z,70.26
2022-12-14T02:57:14.831Z,69.73
2022-12-14T03:02:19.597Z,69.97
2022-12-14T03:07:34.626Z,70.04
2022-12-14T03:12:40.736Z,70.42
2022-12-14T03:17:49.063Z,70.30
2022-12-14T03:22:54.502Z,70.36
2022-12-14T03:28:01.829Z,70.48
2022-12-14T03:33:07.677Z,70.50
2022-12-14T03:38:15.409Z,70.84
2022-12-14T03:43:21.899Z,70.92
2022-12-14T03:48:31.313Z,70.61
2022-12-14T03:53:39.396Z,70.55
2022-12-14T03:58:55.361Z,70.78
2022-12-14T04:04:05.277Z,70.94
2022-12-14T04:09:18.873Z,70.92
2022-12-14T04:14:42.419Z,70.39
2022-12-14T04:19:49.916Z,70.14
2022-12-14T04:25:14.449Z,71.03
2022-12-14T04:30:17.548Z,70.73
2022-12-14T04:35:23.951Z,70.42
2022-12-14T04:40:30.348Z,70.48
2022-12-14T04:45:36.961Z,70.66
2022-12-14T04:50:45.006Z,70.38
2022-12-14T04:55:52.297Z,70.95
2022-12-14T05:01:09.755Z,70.71
2022-12-14T05:06:19.704Z,70.26
2022-12-14T05:16:50.559Z,70.73
2022-12-14T05:21:56.022Z,70.64
2022-12-14T05:26:58.988Z,71.31
2022-12-14T05:32:02.013Z,71.23
2022-12-14T05:37:06.078Z,70.20
2022-12-14T05:42:08.783Z,70.77
2022-12-14T05:47:11.706Z,70.67
2022-12-14T05:52:15.896Z,71.24
2022-12-14T05:57:18.585Z,71.43
2022-12-14T06:02:21.411Z,71.68
2022-12-14T06:07:27.932Z,71.69
2022-12-14T06:12:31.552Z,71.14
2022-12-14T06:17:34.263Z,71.41
2022-12-14T06:22:42.758Z,70.69
2022-12-14T06:27:48.592Z,71.29
2022-12-14T06:32:51.313Z,70.52
2022-12-14T06:37:55.796Z,70.38
2022-12-14T06:42:58.572Z,70.50
2022-12-14T06:48:02.056Z,69.87
2022-12-14T06:53:06.251Z,70.34
2022-12-14T06:58:12.455Z,70.95
2022-12-14T07:03:15.271Z,70.78
2022-12-14T07:08:20.449Z,70.51
2022-12-14T07:13:23.642Z,71.32
2022-12-14T07:18:27.109Z,70.81
2022-12-14T07:23:32.841Z,71.14
2022-12-14T07:28:36.976Z,70.34
2022-12-14T07:33:39.711Z,69.81
2022-12-14T07:38:45.406Z,69.27
2022-12-14T07:43:49.738Z,69.85
2022-12-14T07:48:54.743Z,69.64
2022-12-14T07:53:59.593Z,69.08
2022-12-14T07:59:04.116Z,69.85
2022-12-14T08:04:08.737Z,69.93
2022-12-14T08:09:13.398Z,70.39
2022-12-14T08:14:18.158Z,70.26
2022-12-14T08:19:21.117Z,69.86
2022-12-14T08:24:25.510Z,70.25
2022-12-14T08:29:28.344Z,69.66
2022-12-14T08:34:31.270Z,69.69
2022-12-14T08:39:35.456Z,69.53
2022-12-14T08:44:38.243Z,69.18
2022-12-14T08:49:41.277Z,68.89
2022-12-14T08:54:45.692Z,69.02
2022-12-14T09:00:03.965Z,68.69
2022-12-14T09:05:07.154Z,68.73
2022-12-14T09:10:11.871Z,68.39
2022-12-14T09:15:14.702Z,68.29
2022-12-14T09:20:19.355Z,68.43
2022-12-14T09:25:23.571Z,68.30
2022-12-14T09:30:27.038Z,68.54
2022-12-14T09:35:30.063Z,68.62
2022-12-14T09:40:34.239Z,68.75
2022-12-14T09:45:46.216Z,68.41
2022-12-14T09:50:50.590Z,68.52
2022-12-14T09:55:56.734Z,68.28
2022-12-14T10:01:05.992Z,68.17
2022-12-14T10:06:29.050Z,68.11
2022-12-14T10:11:38.641Z,68.24
2022-12-14T10:16:51.471Z,68.68
2022-12-14T10:21:58.777Z,68.49
2022-12-14T10:27:03.193Z,68.56
2022-12-14T10:32:19.122Z,68.27
2022-12-14T10:37:26.556Z,68.52
2022-12-14T10:42:33.913Z,68.28
2022-12-14T10:47:40.245Z,68.35
2022-12-14T10:52:44.049Z,68.48
2022-12-14T10:57:48.311Z,68.34
2022-12-14T11:02:55.302Z,68.57
2022-12-14T11:07:58.180Z,68.62
2022-12-14T11:13:06.804Z,68.67
2022-12-14T11:18:25.124Z,68.66
2022-12-14T11:23:30.199Z,68.59
2022-12-14T11:28:37.778Z,68.00
2022-12-14T11:33:45.636Z,68.47
2022-12-14T11:38:57.331Z,68.45
2022-12-14T11:44:22.889Z,68.87
2022-12-14T11:49:28.239Z,68.38
2022-12-14T11:54:31.909Z,68.84
2022-12-14T11:59:40.897Z,68.73
2022-12-14T12:04:46.380Z,68.48
2022-12-14T12:09:49.127Z,68.13
2022-12-14T12:14:57.099Z,68.34
2022-12-14T12:20:00.180Z,68.25
2022-12-14T12:30:33.238Z,68.50
2022-12-14T12:35:38.932Z,68.65
2022-12-14T12:40:53.417Z,68.71
2022-12-14T12:46:00.241Z,68.66
2022-12-14T12:51:05.404Z,68.49
2022-12-14T12:56:11.856Z,68.30
2022-12-14T13:01:25.539Z,69.00
2022-12-14T13:06:31.333Z,68.78
2022-12-14T13:11:38.813Z,69.14
2022-12-14T13:16:43.453Z,69.13
2022-12-14T13:21:49.721Z,69.39
2022-12-14T13:27:29.467Z,69.61
2022-12-14T13:32:47.118Z,70.54
2022-12-14T13:38:01.911Z,70.84
2022-12-14T13:43:16.956Z,71.08
2022-12-14T13:48:24.516Z,71.12
2022-12-14T13:53:29.907Z,71.02
2022-12-14T13:58:35.082Z,70.86
2022-12-14T14:03:56.210Z,71.04
2022-12-14T14:09:03.077Z,70.97
2022-12-14T14:14:15.692Z,71.16
2022-12-14T14:19:23.728Z,71.04
2022-12-14T14:24:27.445Z,71.10
2022-12-14T14:29:31.029Z,71.21
2022-12-14T14:34:39.910Z,71.15
2022-12-14T14:40:07.244Z,71.50
2022-12-14T14:45:07.874Z,71.13
2022-12-14T14:50:22.373Z,71.12
2022-12-14T14:56:01.124Z,71.58
2022-12-14T15:01:10.744Z,71.50
2022-12-14T15:06:20.020Z,71.50
2022-12-14T15:11:24.234Z,71.95
2022-12-14T15:16:32.605Z,72.15
2022-12-14T15:21:39.217Z,72.15
2022-12-14T15:26:42.589Z,72.44
2022-12-14T15:31:46.994Z,72.60
2022-12-14T15:36:51.864Z,72.34
2022-12-14T15:42:03.392Z,72.79
2022-12-14T15:47:07.775Z,72.22
2022-12-14T15:52:12.279Z,72.65
2022-12-14T15:57:18.312Z,72.74
2022-12-14T16:02:25.513Z,72.18
2022-12-14T16:07:34.615Z,72.18
2022-12-14T16:12:44.384Z,72.29
2022-12-14T16:17:48.152Z,72.61
2022-12-14T16:23:07.772Z,72.68
2022-12-14T16:28:21.929Z,72.91
2022-12-14T16:33:25.725Z,73.08
2022-12-14T16:38:30.285Z,73.27
2022-12-14T16:43:36.040Z,73.63
2022-12-14T16:48:41.655Z,73.79
2022-12-14T16:53:52.443Z,73.89
2022-12-14T16:58:57.637Z,73.66
2022-12-14T17:04:03.547Z,73.85
2022-12-14T17:09:08.168Z,73.74
2022-12-14T17:14:11.083Z,74.23
2022-12-14T17:19:21.242Z,74.09
2022-12-14T17:24:25.419Z,74.36
2022-12-14T17:29:29.993Z,74.44
2022-12-14T17:34:32.763Z,74.56
2022-12-14T17:39:38.289Z,74.19
2022-12-14T17:44:42.009Z,74.47
2022-12-14T17:49:44.794Z,74.41
2022-12-14T17:54:48.962Z,74.62
2022-12-14T18:00:13.112Z,74.54
2022-12-14T18:05:19.376Z,74.65
2022-12-14T18:10:24.045Z,74.43
2022-12-14T18:15:28.645Z,74.42
2022-12-14T18:20:31.672Z,74.69
2022-12-14T18:25:38.013Z,74.49
2022-12-14T18:30:47.677Z,74.28
2022-12-14T18:35:53.493Z,74.01
2022-12-14T18:41:00.174Z,74.39
2022-12-14T18:46:03.041Z,74.63
2022-12-14T18:51:06.594Z,74.72
2022-12-14T18:56:16.200Z,74.93
2022-12-14T19:01:20.741Z,75.21
2022-12-14T19:11:49.280Z,74.94
2022-12-14T19:16:51.976Z,74.84
2022-12-14T19:21:54.886Z,74.57
2022-12-14T19:26:59.224Z,74.41
2022-12-14T19:32:05.619Z,74.62
2022-12-14T19:37:08.907Z,75.00
2022-12-14T19:42:13.941Z,74.82
2022-12-14T19:47:16.708Z,75.27
2022-12-14T19:52:19.666Z,75.28
2022-12-14T19:57:23.899Z,75.12
2022-12-14T20:02:26.805Z,75.19
2022-12-14T20:07:29.775Z,75.38
2022-12-14T20:12:34.675Z,75.70
2022-12-14T20:17:37.567Z,75.85
2022-12-14T20:22:40.614Z,76.13
2022-12-14T20:27:44.950Z,76.34
2022-12-14T20:32:49.116Z,76.73
2022-12-14T20:37:53.684Z,76.85
2022-12-14T20:42:57.826Z,76.47
2022-12-14T20:48:00.616Z,76.36
2022-12-14T20:53:03.456Z,76.63
2022-12-14T20:58:07.563Z,76.21
2022-12-14T21:03:10.466Z,76.59
2022-12-14T21:08:15.634Z,76.24
2022-12-14T21:13:19.953Z,76.82
2022-12-14T21:18:24.574Z,76.22
2022-12-14T21:23:27.782Z,76.43
2022-12-14T21:28:32.469Z,77.13
2022-12-14T21:33:36.371Z,76.71
2022-12-14T21:38:39.300Z,76.76
2022-12-14T21:43:43.421Z,76.67
2022-12-14T21:48:46.599Z,76.20
2022-12-14T21:54:00.979Z,76.16
2022-12-14T21:59:05.083Z,75.84
2022-12-14T22:04:07.875Z,75.63
2022-12-14T22:09:10.597Z,75.69
2022-12-14T22:14:15.242Z,74.96
2022-12-14T22:19:21.111Z,75.07
2022-12-14T22:24:24.803Z,74.70
2022-12-14T22:29:28.880Z,74.24
2022-12-14T22:34:31.631Z,74.30
2022-12-14T22:39:34.339Z,74.91
2022-12-14T22:44:38.865Z,74.90
2022-12-14T22:49:41.617Z,75.27
2022-12-14T22:54:44.663Z,74.86
2022-12-14T22:59:57.678Z,74.90
2022-12-14T23:05:00.456Z,74.35
2022-12-14T23:10:20.858Z,75.03
2022-12-14T23:15:42.351Z,75.72
2022-12-14T23:21:02.599Z,74.68
2022-12-14T23:26:23.429Z,74.44
2022-12-14T23:31:44.893Z,74.15
2022-12-14T23:37:04.927Z,74.18
2022-12-14T23:42:25.372Z,74.60
2022-12-14T23:47:46.795Z,74.46
2022-12-14T23:53:09.945Z,73.81
2022-12-14T23:58:30.056Z,74.10
